^^
Station Historical Data
Daily Summary for May 4, 2019 Units:  English    Metric   Both
« Previous Day
Next Day »
Daily Weekly Monthly Yearly Custom
  High: Low: Average:
Temperature: 53.3 °F 36.4 °F 44.8 °F
Dew Point: 37 °F 26.4 °F 31.8 °F
Humidity: 80% 43% 61%
Wind Speed: 18mph 0mph 7.7mph
Wind Gust: 22mph - -
Wind- - West
Pressure: 29.85 in 29.75 in -
Precipitation: 0 in    
Historical Graphs
 
 
Tabular Data for May 4, 2019
Time Temperature Dew Point Pressure Wind Wind Speed Wind Gust Humidity Rainfall Rate (Hourly) solar Conditions
00:04 49.6 °F 28.6 °F 29.75 in South 14 mph 14 mph 44% 0 in 0.00 W/m2
00:09 49.6 °F 28.6 °F 29.75 in SSW 8 mph 14 mph 44% 0 in 0.00 W/m2
00:14 49.5 °F 28.5 °F 29.76 in SSW 10 mph 14 mph 44% 0 in 0.00 W/m2
00:19 49.4 °F 28.9 °F 29.75 in SSW 8 mph 13 mph 45% 0 in 0.00 W/m2
00:24 49.1 °F 28.7 °F 29.75 in SSW 13 mph 13 mph 45% 0 in 0.00 W/m2
00:29 48.8 °F 28.9 °F 29.75 in SSW 8 mph 13 mph 46% 0 in 0.00 W/m2
00:34 48.5 °F 29.2 °F 29.75 in South 6 mph 11 mph 47% 0 in 0.00 W/m2
00:39 48.2 °F 28.9 °F 29.75 in SSE 9 mph 12 mph 47% 0 in 0.00 W/m2
00:44 48 °F 29.2 °F 29.75 in South 5 mph 12 mph 48% 0 in 0.00 W/m2
00:49 47.8 °F 29 °F 29.75 in SSW 7 mph 10 mph 48% 0 in 0.00 W/m2
00:54 47.8 °F 29 °F 29.76 in SSW 5 mph 11 mph 48% 0 in 0.00 W/m2
00:59 47.7 °F 29.5 °F 29.76 in South 7 mph 11 mph 49% 0 in 0.00 W/m2
01:04 47.6 °F 29.4 °F 29.75 in SSW 8 mph 12 mph 49% 0 in 0.00 W/m2
01:09 47.6 °F 29.9 °F 29.75 in South 10 mph 12 mph 50% 0 in 0.00 W/m2
01:14 47.5 °F 29.8 °F 29.75 in SSW 7 mph 12 mph 50% 0 in 0.00 W/m2
01:19 47.5 °F 29.8 °F 29.75 in South 6 mph 12 mph 50% 0 in 0.00 W/m2
01:24 47.4 °F 29.7 °F 29.75 in SSW 5 mph 12 mph 50% 0 in 0.00 W/m2
01:29 47.3 °F 29.6 °F 29.75 in SSW 7 mph 10 mph 50% 0 in 0.00 W/m2
01:34 47.1 °F 29.9 °F 29.75 in South 8 mph 10 mph 51% 0 in 0.00 W/m2
01:39 47 °F 29.8 °F 29.75 in SSW 4 mph 13 mph 51% 0 in 0.00 W/m2
01:44 47 °F 29.8 °F 29.77 in WNW 14 mph 18 mph 51% 0 in 0.00 W/m2
01:49 45.5 °F 29.8 °F 29.77 in WSW 9 mph 18 mph 54% 0 in 0.00 W/m2
01:54 45.2 °F 30 °F 29.77 in NNW 5 mph 18 mph 55% 0 in 0.00 W/m2
01:59 44.3 °F 29.6 °F 29.77 in NNW 3 mph 17 mph 56% 0 in 0.00 W/m2
02:04 43.6 °F 29.4 °F 29.77 in WNW 3 mph 8 mph 57% 0 in 0.00 W/m2
02:09 43.4 °F 29.6 °F 29.76 in Calm   8 mph 58% 0 in 0.00 W/m2
02:14 43.1 °F 29.7 °F 29.76 in WSW 2 mph 4 mph 59% 0 in 0.00 W/m2
02:19 42.4 °F 29.5 °F 29.76 in WSW 3 mph 4 mph 60% 0 in 0.00 W/m2
02:24 42.2 °F 29.3 °F 29.76 in WSW 2 mph 4 mph 60% 0 in 0.00 W/m2
02:29 42.2 °F 29.7 °F 29.77 in WNW 4 mph 5 mph 61% 0 in 0.00 W/m2
02:34 42.4 °F 29.5 °F 29.76 in WNW 3 mph 5 mph 60% 0 in 0.00 W/m2
02:39 43 °F 29.6 °F 29.77 in West 5 mph 5 mph 59% 0 in 0.00 W/m2
02:44 43.3 °F 29.5 °F 29.76 in West 3 mph 5 mph 58% 0 in 0.00 W/m2
02:49 43.4 °F 29.6 °F 29.76 in West 4 mph 5 mph 58% 0 in 0.00 W/m2
02:54 43.8 °F 30 °F 29.76 in West 4 mph 5 mph 58% 0 in 0.00 W/m2
02:59 43.9 °F 29.6 °F 29.76 in West 4 mph 5 mph 57% 0 in 0.00 W/m2
03:04 43.8 °F 30 °F 29.76 in West 2 mph 5 mph 58% 0 in 0.00 W/m2
03:09 43.6 °F 31 °F 29.76 in West 4 mph 5 mph 61% 0 in 0.00 W/m2
03:14 43.4 °F 30 °F 29.77 in WNW 5 mph 6 mph 59% 0 in 0.00 W/m2
03:19 43.3 °F 29.9 °F 29.76 in WNW 5 mph 6 mph 59% 0 in 0.00 W/m2
03:24 42.9 °F 30 °F 29.76 in WNW 2 mph 5 mph 60% 0 in 0.00 W/m2
03:29 42.6 °F 29.7 °F 29.76 in WNW 2 mph 5 mph 60% 0 in 0.00 W/m2
03:34 42.3 °F 29.4 °F 29.76 in WNW 3 mph 3 mph 60% 0 in 0.00 W/m2
03:39 42.1 °F 29.6 °F 29.76 in WNW 3 mph 4 mph 61% 0 in 0.00 W/m2
03:44 42.1 °F 29.6 °F 29.76 in WNW 3 mph 4 mph 61% 0 in 0.00 W/m2
03:49 42 °F 29.9 °F 29.76 in WNW 3 mph 4 mph 62% 0 in 0.00 W/m2
03:54 42.1 °F 30 °F 29.75 in Calm   3 mph 62% 0 in 0.00 W/m2
03:59 42.2 °F 30.1 °F 29.76 in WNW 3 mph 3 mph 62% 0 in 0.00 W/m2
04:04 42.3 °F 30.2 °F 29.76 in WNW 3 mph 3 mph 62% 0 in 0.00 W/m2
04:09 42.2 °F 30.5 °F 29.77 in WNW 2 mph 3 mph 63% 0 in 0.00 W/m2
04:14 42.1 °F 30.4 °F 29.77 in WNW 1 mph 3 mph 63% 0 in 0.00 W/m2
04:19 42 °F 30.3 °F 29.77 in WNW 1 mph 2 mph 63% 0 in 0.00 W/m2
04:24 42 °F 30.3 °F 29.77 in WNW 3 mph 3 mph 63% 0 in 0.00 W/m2
04:29 42 °F 30.7 °F 29.77 in WNW 2 mph 3 mph 64% 0 in 0.00 W/m2
04:34 41.9 °F 30.6 °F 29.77 in WNW 2 mph 3 mph 64% 0 in 0.00 W/m2
04:39 41.9 °F 30.6 °F 29.77 in WNW 1 mph 3 mph 64% 0 in 0.00 W/m2
04:44 42 °F 31.8 °F 29.77 in WNW 2 mph 3 mph 67% 0 in 0.00 W/m2
04:49 41.8 °F 32 °F 29.77 in WNW 1 mph 3 mph 68% 0 in 0.00 W/m2
04:54 41.9 °F 32.1 °F 29.77 in Calm   3 mph 68% 0 in 0.00 W/m2
04:59 41.9 °F 32.1 °F 29.78 in WNW 2 mph 2 mph 68% 0 in 0.00 W/m2
05:04 42 °F 32.2 °F 29.78 in WNW 1 mph 2 mph 68% 0 in 0.00 W/m2
05:09 42 °F 32.6 °F 29.79 in WNW 1 mph 3 mph 69% 0 in 0.00 W/m2
05:14 41.9 °F 32.5 °F 29.79 in WNW 1 mph 3 mph 69% 0 in 0.00 W/m2
05:19 42 °F 32.6 °F 29.79 in WNW 2 mph 2 mph 69% 0 in 0.00 W/m2
05:24 42 °F 32.6 °F 29.79 in WNW 2 mph 3 mph 69% 0 in 0.00 W/m2
05:29 41.8 °F 32.4 °F 29.79 in WNW 4 mph 5 mph 69% 0 in 0.00 W/m2
05:34 41.8 °F 32.7 °F 29.79 in WNW 4 mph 5 mph 70% 0 in 0.00 W/m2
05:39 41.4 °F 32.3 °F 29.79 in WNW 4 mph 6 mph 70% 0 in 0.00 W/m2
05:44 40.7 °F 32 °F 29.79 in WNW 5 mph 6 mph 71% 0 in 0.00 W/m2
05:49 40.1 °F 32.1 °F 29.79 in WNW 4 mph 5 mph 73% 0 in 0.00 W/m2
05:54 40 °F 32.4 °F 29.79 in NNW 7 mph 7 mph 74% 0 in 0.00 W/m2
05:59 40.1 °F 32.5 °F 29.79 in NNW 5 mph 7 mph 74% 0 in 0.00 W/m2
06:04 40.4 °F 32.8 °F 29.79 in NNW 5 mph 7 mph 74% 0 in 0.00 W/m2
06:09 40.9 °F 33.9 °F 29.79 in NNW 6 mph 8 mph 76% 0 in 0.00 W/m2
06:14 41.6 °F 34.9 °F 29.79 in NNW 6 mph 8 mph 77% 0 in 0.00 W/m2
06:19 42.4 °F 35.4 °F 29.79 in NW 6 mph 8 mph 76% 0 in 0.00 W/m2
06:24 43.2 °F 35.8 °F 29.80 in NW 6 mph 10 mph 75% 0 in 0.00 W/m2
06:29 43.3 °F 35.9 °F 29.80 in NW 6 mph 10 mph 75% 0 in 5.00 W/m2
06:34 43.3 °F 36.2 °F 29.80 in NNW 5 mph 9 mph 76% 0 in 7.00 W/m2
06:39 43.1 °F 36.4 °F 29.80 in NNW 7 mph 9 mph 77% 0 in 9.00 W/m2
06:44 42.9 °F 36.5 °F 29.80 in NNW 5 mph 8 mph 78% 0 in 12.00 W/m2
06:49 42.9 °F 36.5 °F 29.80 in NNW 7 mph 10 mph 78% 0 in 16.00 W/m2
06:54 43.1 °F 35.7 °F 29.79 in NNW 8 mph 12 mph 75% 0 in 16.00 W/m2
06:59 43.3 °F 34.9 °F 29.79 in NNW 9 mph 13 mph 72% 0 in 18.00 W/m2
07:04 43.4 °F 34.3 °F 29.80 in NNW 9 mph 13 mph 70% 0 in 30.00 W/m2
07:09 43.3 °F 34.2 °F 29.80 in NW 10 mph 13 mph 70% 0 in 28.00 W/m2
07:14 43.2 °F 34.1 °F 29.80 in NNW 13 mph 16 mph 70% 0 in 26.00 W/m2
07:19 43.1 °F 33.3 °F 29.79 in North 16 mph 17 mph 68% 0 in 35.00 W/m2
07:24 43.1 °F 32.9 °F 29.80 in NNW 9 mph 17 mph 67% 0 in 47.00 W/m2
07:29 43.2 °F 33 °F 29.81 in North 11 mph 17 mph 67% 0 in 62.00 W/m2
07:34 43.1 °F 32.9 °F 29.81 in NNW 11 mph 15 mph 67% 0 in 67.00 W/m2
07:39 43.1 °F 32.5 °F 29.81 in NNE 12 mph 18 mph 66% 0 in 83.00 W/m2
07:44 43.2 °F 33 °F 29.81 in North 11 mph 18 mph 67% 0 in 95.00 W/m2
07:49 43.3 °F 33.1 °F 29.82 in NNW 11 mph 16 mph 67% 0 in 109.00 W/m2
07:54 43.3 °F 33.1 °F 29.82 in North 14 mph 17 mph 67% 0 in 111.00 W/m2
07:59 43.4 °F 33.2 °F 29.82 in North 13 mph 17 mph 67% 0 in 98.00 W/m2
08:04 43.3 °F 32.7 °F 29.81 in North 12 mph 17 mph 66% 0 in 118.00 W/m2
08:09 43.3 °F 32.3 °F 29.82 in North 14 mph 21 mph 65% 0 in 120.00 W/m2
08:14 43.2 °F 32.2 °F 29.83 in NNW 15 mph 21 mph 65% 0 in 171.00 W/m2
08:19 43.3 °F 31.1 °F 29.84 in NNW 18 mph 22 mph 62% 0 in 251.00 W/m2
08:24 43.4 °F 30.8 °F 29.83 in North 9 mph 22 mph 61% 0 in 216.00 W/m2
08:29 43.6 °F 31.8 °F 29.83 in NNW 12 mph 22 mph 63% 0 in 202.00 W/m2
08:34 43.4 °F 30.8 °F 29.82 in North 17 mph 21 mph 61% 0 in 178.00 W/m2
08:39 43.1 °F 30.6 °F 29.82 in North 13 mph 21 mph 61% 0 in 181.00 W/m2
08:44 43.1 °F 30.6 °F 29.82 in NNW 10 mph 21 mph 61% 0 in 200.00 W/m2
08:49 43.1 °F 30.6 °F 29.83 in North 12 mph 19 mph 61% 0 in 220.00 W/m2
08:54 43.1 °F 30.6 °F 29.83 in NNW 14 mph 19 mph 61% 0 in 243.00 W/m2
08:59 43.3 °F 30.7 °F 29.83 in North 12 mph 19 mph 61% 0 in 211.00 W/m2
09:04 43.3 °F 29.1 °F 29.84 in North 13 mph 18 mph 57% 0 in 223.00 W/m2
09:09 43.1 °F 29.3 °F 29.84 in North 10 mph 17 mph 58% 0 in 232.00 W/m2
09:14 43.3 °F 29.9 °F 29.84 in North 15 mph 18 mph 59% 0 in 255.00 W/m2
09:19 43.4 °F 30 °F 29.84 in North 10 mph 18 mph 59% 0 in 244.00 W/m2
09:24 43.4 °F 30 °F 29.84 in NNW 14 mph 17 mph 59% 0 in 276.00 W/m2
09:29 43.4 °F 30 °F 29.85 in North 11 mph 17 mph 59% 0 in 276.00 W/m2
09:34 43.6 °F 30.6 °F 29.85 in NNW 11 mph 15 mph 60% 0 in 274.00 W/m2
09:39 44 °F 31 °F 29.84 in North 7 mph 14 mph 60% 0 in 288.00 W/m2
09:44 44.3 °F 31.3 °F 29.84 in NNW 9 mph 14 mph 60% 0 in 309.00 W/m2
09:49 44.5 °F 31.9 °F 29.85 in NNW 9 mph 14 mph 61% 0 in 338.00 W/m2
09:54 44.5 °F 30.6 °F 29.84 in NNW 14 mph 19 mph 58% 0 in 353.00 W/m2
09:59 44.3 °F 28.7 °F 29.84 in NNW 13 mph 19 mph 54% 0 in 401.00 W/m2
10:04 44.3 °F 28.2 °F 29.84 in NNW 9 mph 19 mph 53% 0 in 345.00 W/m2
10:09 44.1 °F 27.1 °F 29.84 in NNW 18 mph 20 mph 51% 0 in 343.00 W/m2
10:14 43.8 °F 26.8 °F 29.84 in NNW 9 mph 20 mph 51% 0 in 355.00 W/m2
10:19 44 °F 26.5 °F 29.84 in North 11 mph 19 mph 50% 0 in 371.00 W/m2
10:24 44.3 °F 27.3 °F 29.84 in North 7 mph 16 mph 51% 0 in 457.00 W/m2
10:29 45.1 °F 27.6 °F 29.84 in NNW 16 mph 20 mph 50% 0 in 483.00 W/m2
10:34 44.9 °F 26.9 °F 29.84 in North 8 mph 20 mph 49% 0 in 413.00 W/m2
10:39 44.7 °F 27.7 °F 29.84 in North 12 mph 19 mph 51% 0 in 520.00 W/m2
10:44 45.2 °F 27.2 °F 29.83 in NNW 11 mph 17 mph 49% 0 in 378.00 W/m2
10:49 45.1 °F 27.1 °F 29.83 in NNW 15 mph 16 mph 49% 0 in 411.00 W/m2
10:54 44.7 °F 26.7 °F 29.83 in North 13 mph 17 mph 49% 0 in 350.00 W/m2
10:59 44.4 °F 26.4 °F 29.83 in NNW 16 mph 17 mph 49% 0 in 364.00 W/m2
11:04 44.6 °F 27.1 °F 29.83 in NNW 14 mph 17 mph 50% 0 in 448.00 W/m2
11:09 45 °F 27.5 °F 29.83 in NNW 13 mph 17 mph 50% 0 in 371.00 W/m2
11:14 45.2 °F 26.7 °F 29.83 in NNW 12 mph 16 mph 48% 0 in 461.00 W/m2
11:19 45.5 °F 28.4 °F 29.83 in North 10 mph 16 mph 51% 0 in 457.00 W/m2
11:24 46 °F 28.4 °F 29.83 in North 9 mph 15 mph 50% 0 in 438.00 W/m2
11:29 46.3 °F 28.2 °F 29.83 in North 7 mph 15 mph 49% 0 in 388.00 W/m2
11:34 45.9 °F 27.8 °F 29.83 in WNW 7 mph 15 mph 49% 0 in 336.00 W/m2
11:39 45.4 °F 28.3 °F 29.83 in NNW 12 mph 16 mph 51% 0 in 387.00 W/m2
11:44 45.8 °F 29.6 °F 29.83 in NNW 8 mph 16 mph 53% 0 in 476.00 W/m2
11:49 46.2 °F 29.5 °F 29.83 in North 12 mph 16 mph 52% 0 in 490.00 W/m2
11:54 46.4 °F 29.7 °F 29.82 in North 10 mph 16 mph 52% 0 in 499.00 W/m2
11:59 46.4 °F 30.2 °F 29.82 in North 8 mph 16 mph 53% 0 in 432.00 W/m2
12:04 46.7 °F 30.5 °F 29.82 in NNW 11 mph 13 mph 53% 0 in 464.00 W/m2
12:09 47 °F 29.8 °F 29.82 in NNW 9 mph 15 mph 51% 0 in 424.00 W/m2
12:14 46.6 °F 29.9 °F 29.82 in North 9 mph 15 mph 52% 0 in 366.00 W/m2
12:19 46.6 °F 28.9 °F 29.82 in NNW 10 mph 14 mph 50% 0 in 446.00 W/m2
12:24 47.3 °F 31 °F 29.82 in North 6 mph 14 mph 53% 0 in 707.00 W/m2
12:29 47.6 °F 29.9 °F 29.82 in North 9 mph 13 mph 50% 0 in 543.00 W/m2
12:34 48.1 °F 29.8 °F 29.82 in NW 5 mph 14 mph 49% 0 in 564.00 W/m2
12:39 48.5 °F 30.2 °F 29.82 in NNE 7 mph 14 mph 49% 0 in 533.00 W/m2
12:44 48.9 °F 29.5 °F 29.82 in NNE 4 mph 13 mph 47% 0 in 443.00 W/m2
12:49 49 °F 30.1 °F 29.82 in North 9 mph 11 mph 48% 0 in 612.00 W/m2
12:54 49.4 °F 30 °F 29.81 in NW 8 mph 11 mph 47% 0 in 719.00 W/m2
12:59 49 °F 29.1 °F 29.81 in NNW 5 mph 11 mph 46% 0 in 671.00 W/m2
13:04 49.9 °F 30.5 °F 29.81 in NNE 6 mph 11 mph 47% 0 in 786.00 W/m2
13:09 51.1 °F 31 °F 29.80 in NNE 10 mph 15 mph 46% 0 in 879.00 W/m2
13:14 52.3 °F 33.2 °F 29.81 in NNW 6 mph 15 mph 48% 0 in 867.00 W/m2
13:19 52.8 °F 30.9 °F 29.81 in NW 9 mph 13 mph 43% 0 in 904.00 W/m2
13:24 51.9 °F 31.2 °F 29.80 in NW 6 mph 13 mph 45% 0 in 923.00 W/m2
13:29 51.7 °F 31.6 °F 29.80 in NNW 6 mph 13 mph 46% 0 in 626.00 W/m2
13:34 51.9 °F 33.8 °F 29.80 in NW 3 mph 12 mph 50% 0 in 677.00 W/m2
13:39 52.8 °F 34.2 °F 29.80 in NNE 10 mph 12 mph 49% 0 in 687.00 W/m2
13:44 52.3 °F 33.7 °F 29.80 in North 8 mph 13 mph 49% 0 in 471.00 W/m2
13:49 52.2 °F 34.1 °F 29.81 in North 13 mph 16 mph 50% 0 in 568.00 W/m2
13:54 52.2 °F 33.1 °F 29.81 in NNW 7 mph 16 mph 48% 0 in 751.00 W/m2
13:59 51.8 °F 34.2 °F 29.81 in NNW 13 mph 16 mph 51% 0 in 911.00 W/m2
14:04 52.2 °F 33.6 °F 29.81 in NNW 12 mph 19 mph 49% 0 in 879.00 W/m2
14:09 51.2 °F 33.2 °F 29.81 in NNW 14 mph 19 mph 50% 0 in 796.00 W/m2
14:14 51.4 °F 33.4 °F 29.81 in North 14 mph 17 mph 50% 0 in 933.00 W/m2
14:19 51.2 °F 33.2 °F 29.81 in NW 16 mph 17 mph 50% 0 in 889.00 W/m2
14:24 50.8 °F 33.8 °F 29.81 in NW 7 mph 17 mph 52% 0 in 895.00 W/m2
14:29 50.9 °F 32.9 °F 29.82 in NNW 7 mph 17 mph 50% 0 in 306.00 W/m2
14:34 51 °F 34.5 °F 29.82 in NW 6 mph 14 mph 53% 0 in 816.00 W/m2
14:39 50.7 °F 33.2 °F 29.82 in NNW 7 mph 17 mph 51% 0 in 874.00 W/m2
14:44 50 °F 31.6 °F 29.81 in NW 9 mph 17 mph 49% 0 in 436.00 W/m2
14:49 51.3 °F 35.2 °F 29.81 in North 10 mph 15 mph 54% 0 in 868.00 W/m2
14:54 52.6 °F 34 °F 29.81 in NE 5 mph 14 mph 49% 0 in 905.00 W/m2
14:59 52.7 °F 33.5 °F 29.81 in WNW 8 mph 13 mph 48% 0 in 429.00 W/m2
15:04 51.6 °F 32.5 °F 29.81 in NW 9 mph 14 mph 48% 0 in 947.00 W/m2
15:09 50.9 °F 33.4 °F 29.81 in NW 8 mph 20 mph 51% 0 in 682.00 W/m2
15:14 50.2 °F 32.3 °F 29.81 in WNW 10 mph 20 mph 50% 0 in 302.00 W/m2
15:19 50.2 °F 34.6 °F 29.81 in NNW 5 mph 18 mph 55% 0 in 499.00 W/m2
15:24 52.1 °F 35.5 °F 29.81 in North 12 mph 18 mph 53% 0 in 940.00 W/m2
15:29 53.2 °F 35.5 °F 29.81 in NNE 9 mph 16 mph 51% 0 in 921.00 W/m2
15:34 53.3 °F 34.6 °F 29.80 in NNW 10 mph 16 mph 49% 0 in 668.00 W/m2
15:39 52.3 °F 33.7 °F 29.80 in NNE 10 mph 15 mph 49% 0 in 807.00 W/m2
15:44 52.5 °F 34.4 °F 29.80 in North 9 mph 18 mph 50% 0 in 705.00 W/m2
15:49 52.3 °F 32.6 °F 29.81 in NNW 12 mph 18 mph 47% 0 in 754.00 W/m2
15:54 51.7 °F 33.1 °F 29.81 in North 10 mph 16 mph 49% 0 in 543.00 W/m2
15:59 51.8 °F 35.2 °F 29.81 in North 10 mph 15 mph 53% 0 in 659.00 W/m2
16:04 51.9 °F 33.3 °F 29.80 in NW 11 mph 15 mph 49% 0 in 721.00 W/m2
16:09 50.5 °F 34 °F 29.80 in NW 4 mph 14 mph 53% 0 in 573.00 W/m2
16:14 50.2 °F 33.2 °F 29.80 in NW 13 mph 14 mph 52% 0 in 364.00 W/m2
16:19 50 °F 34 °F 29.81 in NNE 7 mph 15 mph 54% 0 in 483.00 W/m2
16:24 50.7 °F 34.6 °F 29.80 in NNW 10 mph 15 mph 54% 0 in 519.00 W/m2
16:29 50.8 °F 33.8 °F 29.80 in NNW 10 mph 15 mph 52% 0 in 345.00 W/m2
16:34 49.8 °F 34.3 °F 29.80 in North 7 mph 15 mph 55% 0 in 345.00 W/m2
16:39 49.9 °F 33.9 °F 29.80 in NW 10 mph 15 mph 54% 0 in 345.00 W/m2
16:44 49.2 °F 34.2 °F 29.80 in NNE 9 mph 15 mph 56% 0 in 346.00 W/m2
16:49 49.6 °F 34.1 °F 29.80 in NNW 12 mph 17 mph 55% 0 in 670.00 W/m2
16:54 50 °F 35.8 °F 29.80 in NNW 16 mph 17 mph 58% 0 in 619.00 W/m2
16:59 49.6 °F 34.5 °F 29.80 in NNW 10 mph 17 mph 56% 0 in 373.00 W/m2
17:04 48.7 °F 34.1 °F 29.80 in NW 10 mph 17 mph 57% 0 in 404.00 W/m2
17:09 49.4 °F 35.7 °F 29.80 in NNW 10 mph 17 mph 59% 0 in 642.00 W/m2
17:14 50.2 °F 36 °F 29.80 in NNW 12 mph 16 mph 58% 0 in 573.00 W/m2
17:19 50.8 °F 36.1 °F 29.80 in North 10 mph 16 mph 57% 0 in 584.00 W/m2
17:24 50.3 °F 35.6 °F 29.80 in NW 10 mph 15 mph 57% 0 in 605.00 W/m2
17:29 50.4 °F 37 °F 29.80 in NNW 11 mph 15 mph 60% 0 in 533.00 W/m2
17:34 49.8 °F 35.6 °F 29.80 in North 15 mph 16 mph 58% 0 in 563.00 W/m2
17:39 49.9 °F 37 °F 29.80 in NNW 11 mph 16 mph 61% 0 in 497.00 W/m2
17:44 48.6 °F 34.9 °F 29.80 in North 14 mph 17 mph 59% 0 in 459.00 W/m2
17:49 49.1 °F 36.6 °F 29.80 in North 12 mph 17 mph 62% 0 in 501.00 W/m2
17:54 49.5 °F 36.2 °F 29.80 in NW 8 mph 16 mph 60% 0 in 450.00 W/m2
17:59 48.4 °F 35.1 °F 29.80 in NW 13 mph 16 mph 60% 0 in 251.00 W/m2
18:04 47.3 °F 35.3 °F 29.80 in NW 13 mph 17 mph 63% 0 in 512.00 W/m2
18:09 47.8 °F 35.8 °F 29.80 in NNW 16 mph 17 mph 63% 0 in 399.00 W/m2
18:14 48.1 °F 36.5 °F 29.81 in NNW 11 mph 17 mph 64% 0 in 480.00 W/m2
18:19 48.2 °F 35.8 °F 29.81 in NNW 9 mph 17 mph 62% 0 in 424.00 W/m2
18:24 47.9 °F 35.5 °F 29.81 in NW 9 mph 17 mph 62% 0 in 413.00 W/m2
18:29 47 °F 35.4 °F 29.81 in NNW 8 mph 17 mph 64% 0 in 422.00 W/m2
18:34 47.4 °F 35.4 °F 29.81 in NW 12 mph 17 mph 63% 0 in 302.00 W/m2
18:39 47.4 °F 36.6 °F 29.80 in NNW 13 mph 17 mph 66% 0 in 404.00 W/m2
18:44 46.9 °F 35 °F 29.80 in NNW 9 mph 16 mph 63% 0 in 288.00 W/m2
18:49 46.6 °F 35.5 °F 29.81 in NW 10 mph 16 mph 65% 0 in 357.00 W/m2
18:54 47.3 °F 36.1 °F 29.81 in NW 9 mph 17 mph 65% 0 in 325.00 W/m2
18:59 47 °F 35.4 °F 29.81 in NNW 12 mph 17 mph 64% 0 in 192.00 W/m2
19:04 45.8 °F 34.3 °F 29.81 in NNW 8 mph 15 mph 64% 0 in 98.00 W/m2
19:09 44.9 °F 33.8 °F 29.81 in NW 10 mph 17 mph 65% 0 in 118.00 W/m2
19:14 44.5 °F 33.8 °F 29.81 in NW 10 mph 17 mph 66% 0 in 127.00 W/m2
19:19 44.6 °F 33.9 °F 29.80 in NW 8 mph 15 mph 66% 0 in 148.00 W/m2
19:24 44.6 °F 33.9 °F 29.81 in NW 6 mph 14 mph 66% 0 in 116.00 W/m2
19:29 44.5 °F 33.8 °F 29.81 in NW 7 mph 14 mph 66% 0 in 127.00 W/m2
19:34 44.5 °F 33.8 °F 29.81 in NW 9 mph 13 mph 66% 0 in 118.00 W/m2
19:39 44.5 °F 33.8 °F 29.80 in NW 9 mph 13 mph 66% 0 in 104.00 W/m2
19:44 44.5 °F 33.8 °F 29.80 in NW 8 mph 12 mph 66% 0 in 91.00 W/m2
19:49 44.2 °F 33.6 °F 29.81 in NW 10 mph 11 mph 66% 0 in 86.00 W/m2
19:54 44 °F 33.4 °F 29.81 in NW 10 mph 13 mph 66% 0 in 65.00 W/m2
19:59 43.8 °F 33.2 °F 29.81 in NW 9 mph 13 mph 66% 0 in 67.00 W/m2
20:04 43.6 °F 33 °F 29.80 in NW 8 mph 12 mph 66% 0 in 51.00 W/m2
20:09 43.4 °F 33.2 °F 29.81 in NNW 9 mph 13 mph 67% 0 in 51.00 W/m2
20:14 43 °F 32.8 °F 29.81 in NW 8 mph 13 mph 67% 0 in 44.00 W/m2
20:19 42.6 °F 32.4 °F 29.81 in NW 7 mph 14 mph 67% 0 in 37.00 W/m2
20:24 42.2 °F 32.4 °F 29.81 in NNW 9 mph 14 mph 68% 0 in 30.00 W/m2
20:29 41.8 °F 32.4 °F 29.81 in NNW 7 mph 12 mph 69% 0 in 23.00 W/m2
20:34 41.4 °F 32 °F 29.81 in NNW 5 mph 12 mph 69% 0 in 19.00 W/m2
20:39 41.1 °F 32.1 °F 29.81 in NNW 6 mph 10 mph 70% 0 in 16.00 W/m2
20:44 40.8 °F 31.8 °F 29.82 in NW 8 mph 9 mph 70% 0 in 11.00 W/m2
20:49 40.5 °F 31.8 °F 29.82 in NW 5 mph 9 mph 71% 0 in 7.00 W/m2
20:54 40.3 °F 31.6 °F 29.82 in NW 5 mph 9 mph 71% 0 in 5.00 W/m2
20:59 40.1 °F 31.8 °F 29.82 in NW 4 mph 6 mph 72% 0 in 0.00 W/m2
21:04 39.6 °F 31.3 °F 29.82 in NW 4 mph 6 mph 72% 0 in 0.00 W/m2
21:09 39.1 °F 31.2 °F 29.82 in NW 6 mph 7 mph 73% 0 in 0.00 W/m2
21:14 38.7 °F 31.1 °F 29.83 in NNW 6 mph 7 mph 74% 0 in 0.00 W/m2
21:19 38.2 °F 31 °F 29.83 in NNW 8 mph 8 mph 75% 0 in 0.00 W/m2
21:24 38 °F 31.1 °F 29.83 in NW 4 mph 8 mph 76% 0 in 0.00 W/m2
21:29 38 °F 31.1 °F 29.83 in NW 6 mph 8 mph 76% 0 in 0.00 W/m2
21:34 37.9 °F 31.3 °F 29.83 in NW 6 mph 7 mph 77% 0 in 0.00 W/m2
21:39 37.9 °F 31.3 °F 29.83 in NW 4 mph 8 mph 77% 0 in 0.00 W/m2
21:44 37.9 °F 31.3 °F 29.83 in WNW 3 mph 8 mph 77% 0 in 0.00 W/m2
21:49 37.6 °F 31 °F 29.84 in WNW 4 mph 7 mph 77% 0 in 0.00 W/m2
21:54 37.4 °F 31.2 °F 29.84 in WNW 3 mph 6 mph 78% 0 in 0.00 W/m2
21:59 37.5 °F 31.3 °F 29.84 in NW 6 mph 6 mph 78% 0 in 0.00 W/m2
22:04 37.5 °F 31.3 °F 29.84 in NW 6 mph 7 mph 78% 0 in 0.00 W/m2
22:09 37.2 °F 31 °F 29.84 in NW 4 mph 7 mph 78% 0 in 0.00 W/m2
22:14 37.2 °F 31 °F 29.84 in NW 5 mph 7 mph 78% 0 in 0.00 W/m2
22:19 37 °F 30.8 °F 29.85 in NW 5 mph 7 mph 78% 0 in 0.00 W/m2
22:24 36.9 °F 31 °F 29.85 in NW 5 mph 7 mph 79% 0 in 0.00 W/m2
22:29 36.7 °F 30.8 °F 29.85 in NW 5 mph 6 mph 79% 0 in 0.00 W/m2
22:34 36.6 °F 30.7 °F 29.85 in NW 3 mph 7 mph 79% 0 in 0.00 W/m2
22:39 36.7 °F 31.1 °F 29.85 in NW 4 mph 7 mph 80% 0 in 0.00 W/m2
22:44 37.2 °F 31.3 °F 29.85 in NW 6 mph 7 mph 79% 0 in 0.00 W/m2
22:49 37.3 °F 31.4 °F 29.85 in NW 3 mph 7 mph 79% 0 in 0.00 W/m2
22:54 37 °F 31.1 °F 29.85 in NW 5 mph 6 mph 79% 0 in 0.00 W/m2
22:59 37 °F 31.1 °F 29.85 in NW 3 mph 6 mph 79% 0 in 0.00 W/m2
23:04 36.7 °F 30.8 °F 29.85 in NW 3 mph 5 mph 79% 0 in 0.00 W/m2
23:09 36.6 °F 31 °F 29.85 in NW 3 mph 5 mph 80% 0 in 0.00 W/m2
23:14 36.5 °F 30.9 °F 29.85 in NW 2 mph 5 mph 80% 0 in 0.00 W/m2
23:19 36.4 °F 30.8 °F 29.85 in NW 2 mph 5 mph 80% 0 in 0.00 W/m2
23:24 36.4 °F 30.8 °F 29.85 in NW 3 mph 5 mph 80% 0 in 0.00 W/m2
23:29 36.5 °F 30.9 °F 29.85 in NW 3 mph 3 mph 80% 0 in 0.00 W/m2
23:34 36.6 °F 31 °F 29.85 in NW 3 mph 4 mph 80% 0 in 0.00 W/m2
23:39 36.7 °F 30.8 °F 29.85 in Calm   4 mph 79% 0 in 0.00 W/m2
23:44 36.7 °F 30.8 °F 29.85 in NW 1 mph 3 mph 79% 0 in 0.00 W/m2
23:49 36.6 °F 30.7 °F 29.85 in NW 1 mph 3 mph 79% 0 in 0.00 W/m2
23:54 36.6 °F 30.7 °F 29.85 in NW 3 mph 3 mph 79% 0 in 0.00 W/m2
23:59 36.6 °F 31 °F 29.85 in NW 3 mph 5 mph 80% 0 in 0.00 W/m2
Bismarck, North Dakota, USA
Compliments of Weather Underground - 4 mb